2018/05/27 23:00 VVNB 272300Z 06005KT 8000 SCT035 BKN045 24/24 Q1010 NOSIG
2018/05/27 22:30 VVDN 272230Z 00000KT 8000 FEW015 BKN060 28/25 Q1009 NOSIG
2018/05/27 23:00 VVTS 272300Z VRB01KT 8000 FEW015 BKN050 26/25 Q1008 NOSIG
2018/05/27 23:00 VVPB 272300Z VRB02KT 9999 FEW020 SCT070 27/27 Q1010 NOSIG

Powered by MinhViet JSC.